sensor_id;sensor_type;location;lat;lon;timestamp;pressure;altitude;pressure_sealevel;temperature;humidity
4528;BME280;62320;51.520;6.818;2023-02-16T00:05:56;102020.13;;;5.33;90.71
4528;BME280;62320;51.520;6.818;2023-02-16T00:15:58;102002.56;;;5.22;90.92
4528;BME280;62320;51.520;6.818;2023-02-16T00:25:59;102000.69;;;5.18;90.10
4528;BME280;62320;51.520;6.818;2023-02-16T00:36:01;102002.41;;;5.19;91.71
4528;BME280;62320;51.520;6.818;2023-02-16T00:46:02;101995.91;;;5.06;91.30
4528;BME280;62320;51.520;6.818;2023-02-16T00:56:04;101995.00;;;5.04;91.46
4528;BME280;62320;51.520;6.818;2023-02-16T01:06:06;101992.97;;;4.97;90.44
4528;BME280;62320;51.520;6.818;2023-02-16T01:16:35;101990.97;;;4.90;91.72
4528;BME280;62320;51.520;6.818;2023-02-16T01:26:40;101987.72;;;4.75;91.24
4528;BME280;62320;51.520;6.818;2023-02-16T01:36:44;101980.31;;;4.62;91.24
4528;BME280;62320;51.520;6.818;2023-02-16T01:57:02;101977.91;;;4.46;90.57
4528;BME280;62320;51.520;6.818;2023-02-16T02:07:04;101975.44;;;4.47;90.96
4528;BME280;62320;51.520;6.818;2023-02-16T02:17:09;101958.16;;;4.43;91.95
4528;BME280;62320;51.520;6.818;2023-02-16T02:27:17;101959.19;;;4.27;91.94
4528;BME280;62320;51.520;6.818;2023-02-16T02:47:56;101920.44;;;4.39;92.04
4528;BME280;62320;51.520;6.818;2023-02-16T02:57:58;101916.53;;;4.47;92.26
4528;BME280;62320;51.520;6.818;2023-02-16T03:19:42;101895.47;;;4.33;92.25
4528;BME280;62320;51.520;6.818;2023-02-16T03:30:04;101896.59;;;4.21;91.98
4528;BME280;62320;51.520;6.818;2023-02-16T03:40:10;101905.50;;;4.29;92.83
4528;BME280;62320;51.520;6.818;2023-02-16T03:50:32;101903.34;;;4.19;92.23
4528;BME280;62320;51.520;6.818;2023-02-16T04:00:35;101908.66;;;4.23;92.58
4528;BME280;62320;51.520;6.818;2023-02-16T04:10:37;101898.16;;;4.17;92.11
4528;BME280;62320;51.520;6.818;2023-02-16T04:20:39;101898.03;;;4.14;92.79
4528;BME280;62320;51.520;6.818;2023-02-16T04:30:41;101905.28;;;4.05;92.34
4528;BME280;62320;51.520;6.818;2023-02-16T04:40:43;101914.59;;;4.03;91.91
4528;BME280;62320;51.520;6.818;2023-02-16T04:50:44;101896.41;;;3.97;92.95
4528;BME280;62320;51.520;6.818;2023-02-16T05:00:45;101899.03;;;3.99;91.93
4528;BME280;62320;51.520;6.818;2023-02-16T05:10:47;101878.50;;;3.97;92.48
4528;BME280;62320;51.520;6.818;2023-02-16T05:21:11;101896.94;;;4.09;92.20
4528;BME280;62320;51.520;6.818;2023-02-16T05:31:31;101896.41;;;3.97;91.84
4528;BME280;62320;51.520;6.818;2023-02-16T05:41:32;101909.69;;;4.08;92.56
4528;BME280;62320;51.520;6.818;2023-02-16T05:51:34;101905.41;;;3.89;92.55
4528;BME280;62320;51.520;6.818;2023-02-16T06:01:36;101904.53;;;3.89;92.47
4528;BME280;62320;51.520;6.818;2023-02-16T06:11:41;101898.09;;;3.97;92.79
4528;BME280;62320;51.520;6.818;2023-02-16T06:21:43;101903.47;;;4.03;92.74
4528;BME280;62320;51.520;6.818;2023-02-16T06:31:45;101893.19;;;4.01;92.81
4528;BME280;62320;51.520;6.818;2023-02-16T06:41:46;101894.84;;;4.01;92.98
4528;BME280;62320;51.520;6.818;2023-02-16T06:51:48;101905.50;;;4.10;92.85
4528;BME280;62320;51.520;6.818;2023-02-16T07:01:50;101899.78;;;4.15;92.88
4528;BME280;62320;51.520;6.818;2023-02-16T07:11:51;101892.81;;;4.32;93.76
4528;BME280;62320;51.520;6.818;2023-02-16T07:21:53;101884.28;;;4.52;93.13
4528;BME280;62320;51.520;6.818;2023-02-16T07:31:55;101903.94;;;4.52;93.21
4528;BME280;62320;51.520;6.818;2023-02-16T07:41:58;101909.69;;;4.67;92.84
4528;BME280;62320;51.520;6.818;2023-02-16T07:51:59;101927.63;;;4.67;92.89
4528;BME280;62320;51.520;6.818;2023-02-16T08:02:00;101917.38;;;4.87;92.00
4528;BME280;62320;51.520;6.818;2023-02-16T08:12:02;101906.66;;;5.18;92.16
4528;BME280;62320;51.520;6.818;2023-02-16T08:22:04;101911.69;;;5.36;91.49
4528;BME280;62320;51.520;6.818;2023-02-16T08:32:10;101927.66;;;5.51;91.49
4528;BME280;62320;51.520;6.818;2023-02-16T08:42:13;101917.22;;;5.68;90.33
4528;BME280;62320;51.520;6.818;2023-02-16T08:52:15;101914.19;;;6.01;89.44
4528;BME280;62320;51.520;6.818;2023-02-16T09:02:16;101920.13;;;6.22;89.66
4528;BME280;62320;51.520;6.818;2023-02-16T09:12:18;101920.75;;;6.16;89.64
4528;BME280;62320;51.520;6.818;2023-02-16T09:22:19;101932.31;;;6.76;88.92
4528;BME280;62320;51.520;6.818;2023-02-16T09:32:27;101927.00;;;7.22;86.24
4528;BME280;62320;51.520;6.818;2023-02-16T09:53:35;101963.91;;;7.24;88.15
4528;BME280;62320;51.520;6.818;2023-02-16T10:13:54;101948.75;;;7.60;85.88
4528;BME280;62320;51.520;6.818;2023-02-16T10:24:02;101951.94;;;7.51;88.46
4528;BME280;62320;51.520;6.818;2023-02-16T11:04:40;101948.28;;;8.29;86.27
4528;BME280;62320;51.520;6.818;2023-02-16T11:14:56;101927.75;;;8.63;84.93
4528;BME280;62320;51.520;6.818;2023-02-16T11:25:19;101920.19;;;8.70;86.26
4528;BME280;62320;51.520;6.818;2023-02-16T11:35:21;101896.56;;;8.87;86.82
4528;BME280;62320;51.520;6.818;2023-02-16T11:45:34;101894.47;;;8.73;88.83
4528;BME280;62320;51.520;6.818;2023-02-16T11:55:39;101890.75;;;8.96;90.41
4528;BME280;62320;51.520;6.818;2023-02-16T12:26:51;101896.03;;;9.02;91.19
4528;BME280;62320;51.520;6.818;2023-02-16T12:47:04;101887.22;;;9.28;91.04
4528;BME280;62320;51.520;6.818;2023-02-16T12:57:17;101880.38;;;9.30;91.80
4528;BME280;62320;51.520;6.818;2023-02-16T13:07:31;101872.88;;;9.41;91.16
4528;BME280;62320;51.520;6.818;2023-02-16T13:17:42;101841.19;;;9.46;91.99
4528;BME280;62320;51.520;6.818;2023-02-16T13:28:02;101831.72;;;9.47;91.99
4528;BME280;62320;51.520;6.818;2023-02-16T13:38:17;101811.16;;;9.51;91.57
4528;BME280;62320;51.520;6.818;2023-02-16T13:48:30;101809.59;;;9.59;92.01
4528;BME280;62320;51.520;6.818;2023-02-16T13:58:37;101773.34;;;9.53;96.39
4528;BME280;62320;51.520;6.818;2023-02-16T14:08:40;101764.56;;;9.45;96.91
4528;BME280;62320;51.520;6.818;2023-02-16T14:29:13;101742.19;;;9.46;98.61
4528;BME280;62320;51.520;6.818;2023-02-16T14:39:19;101744.91;;;9.52;97.12
4528;BME280;62320;51.520;6.818;2023-02-16T15:10:24;101678.97;;;9.70;96.46
4528;BME280;62320;51.520;6.818;2023-02-16T15:20:36;101687.78;;;9.80;96.52
4528;BME280;62320;51.520;6.818;2023-02-16T15:30:40;101684.28;;;9.76;96.00
4528;BME280;62320;51.520;6.818;2023-02-16T15:40:43;101699.06;;;9.85;96.00
4528;BME280;62320;51.520;6.818;2023-02-16T15:50:45;101681.06;;;9.89;95.50
4528;BME280;62320;51.520;6.818;2023-02-16T16:00:47;101659.59;;;9.93;95.05
4528;BME280;62320;51.520;6.818;2023-02-16T16:10:48;101664.75;;;9.92;95.09
4528;BME280;62320;51.520;6.818;2023-02-16T16:21:00;101671.72;;;9.97;95.33
4528;BME280;62320;51.520;6.818;2023-02-16T16:31:28;101651.94;;;9.99;96.11
4528;BME280;62320;51.520;6.818;2023-02-16T16:41:31;101652.13;;;10.10;96.65
4528;BME280;62320;51.520;6.818;2023-02-16T16:51:39;101650.41;;;10.11;95.81
4528;BME280;62320;51.520;6.818;2023-02-16T17:01:41;101641.16;;;10.22;95.89
4528;BME280;62320;51.520;6.818;2023-02-16T17:11:43;101641.97;;;10.19;95.02
4528;BME280;62320;51.520;6.818;2023-02-16T17:21:45;101633.16;;;10.10;94.46
4528;BME280;62320;51.520;6.818;2023-02-16T17:31:47;101628.09;;;10.13;94.60
4528;BME280;62320;51.520;6.818;2023-02-16T17:41:50;101631.72;;;10.27;93.28
4528;BME280;62320;51.520;6.818;2023-02-16T17:51:53;101626.56;;;10.27;92.26
4528;BME280;62320;51.520;6.818;2023-02-16T18:01:54;101631.75;;;10.28;93.01
4528;BME280;62320;51.520;6.818;2023-02-16T18:11:56;101635.84;;;10.16;93.34
4528;BME280;62320;51.520;6.818;2023-02-16T18:21:58;101647.28;;;10.28;93.29
4528;BME280;62320;51.520;6.818;2023-02-16T18:32:00;101644.69;;;10.30;93.13
4528;BME280;62320;51.520;6.818;2023-02-16T18:42:03;101637.88;;;10.33;93.14
4528;BME280;62320;51.520;6.818;2023-02-16T18:52:04;101645.66;;;10.36;93.69
4528;BME280;62320;51.520;6.818;2023-02-16T19:02:06;101634.50;;;10.39;94.46
4528;BME280;62320;51.520;6.818;2023-02-16T19:12:08;101634.47;;;10.36;94.37
4528;BME280;62320;51.520;6.818;2023-02-16T19:22:10;101648.22;;;10.35;95.46
4528;BME280;62320;51.520;6.818;2023-02-16T19:32:11;101650.75;;;10.32;95.72
4528;BME280;62320;51.520;6.818;2023-02-16T19:42:13;101648.19;;;10.32;95.32
4528;BME280;62320;51.520;6.818;2023-02-16T19:52:15;101655.94;;;10.32;95.28
4528;BME280;62320;51.520;6.818;2023-02-16T20:02:17;101643.00;;;10.32;95.43
4528;BME280;62320;51.520;6.818;2023-02-16T20:12:19;101625.78;;;10.31;95.42
4528;BME280;62320;51.520;6.818;2023-02-16T20:22:21;101618.91;;;10.31;95.55
4528;BME280;62320;51.520;6.818;2023-02-16T20:32:26;101620.59;;;10.31;95.46
4528;BME280;62320;51.520;6.818;2023-02-16T20:42:28;101618.84;;;10.28;95.18
4528;BME280;62320;51.520;6.818;2023-02-16T20:52:29;101618.78;;;10.25;95.59
4528;BME280;62320;51.520;6.818;2023-02-16T21:02:31;101625.72;;;10.28;96.02
4528;BME280;62320;51.520;6.818;2023-02-16T21:12:32;101617.09;;;10.27;96.09
4528;BME280;62320;51.520;6.818;2023-02-16T21:22:34;101617.91;;;10.25;95.57
4528;BME280;62320;51.520;6.818;2023-02-16T21:32:35;101610.22;;;10.28;96.39
4528;BME280;62320;51.520;6.818;2023-02-16T21:42:37;101602.47;;;10.28;96.92
4528;BME280;62320;51.520;6.818;2023-02-16T21:52:38;101598.22;;;10.33;97.01
4528;BME280;62320;51.520;6.818;2023-02-16T22:02:40;101599.06;;;10.30;97.61
4528;BME280;62320;51.520;6.818;2023-02-16T22:12:41;101585.31;;;10.34;98.29
4528;BME280;62320;51.520;6.818;2023-02-16T22:22:43;101574.97;;;10.33;98.28
4528;BME280;62320;51.520;6.818;2023-02-16T22:32:45;101574.13;;;10.35;98.02
4528;BME280;62320;51.520;6.818;2023-02-16T22:42:46;101578.50;;;10.39;98.75
4528;BME280;62320;51.520;6.818;2023-02-16T22:52:48;101562.16;;;10.43;98.85
4528;BME280;62320;51.520;6.818;2023-02-16T23:02:49;101564.75;;;10.42;98.52
4528;BME280;62320;51.520;6.818;2023-02-16T23:12:51;101570.81;;;10.45;98.92
4528;BME280;62320;51.520;6.818;2023-02-16T23:22:52;101578.56;;;10.45;99.26
4528;BME280;62320;51.520;6.818;2023-02-16T23:32:54;101563.03;;;10.42;99.00
4528;BME280;62320;51.520;6.818;2023-02-16T23:42:56;101555.28;;;10.45;99.62
4528;BME280;62320;51.520;6.818;2023-02-16T23:52:57;101555.28;;;10.45;100.00
